createdAt,value
2018-05-12T00:00:36.680Z,65.00
2018-05-12T00:03:03.915Z,64.90
2018-05-12T00:05:31.931Z,65.60
2018-05-12T00:07:59.116Z,65.60
2018-05-12T00:10:27.106Z,65.70
2018-05-12T00:12:54.321Z,65.60
2018-05-12T00:15:21.522Z,64.60
2018-05-12T00:17:48.758Z,63.50
2018-05-12T00:20:15.972Z,63.00
2018-05-12T00:22:43.313Z,62.40
2018-05-12T00:25:10.681Z,62.00
2018-05-12T00:27:38.801Z,61.20
2018-05-12T00:30:06.172Z,61.20
2018-05-12T00:32:33.519Z,60.70
2018-05-12T00:35:00.820Z,60.40
2018-05-12T00:37:28.911Z,60.00
2018-05-12T00:39:56.217Z,60.00
2018-05-12T00:42:23.539Z,59.80
2018-05-12T00:44:50.889Z,59.70
2018-05-12T00:47:18.208Z,59.50
2018-05-12T00:49:45.563Z,59.30
2018-05-12T00:52:12.890Z,59.20
2018-05-12T00:54:40.233Z,59.00
2018-05-12T00:57:07.543Z,59.00
2018-05-12T00:59:34.916Z,58.90
2018-05-12T01:02:02.236Z,58.90
2018-05-12T01:04:29.559Z,58.70
2018-05-12T01:06:56.924Z,58.60
2018-05-12T01:09:25.114Z,58.30
2018-05-12T01:11:52.447Z,58.30
2018-05-12T01:14:20.557Z,58.30
2018-05-12T01:16:47.862Z,58.20
2018-05-12T01:19:15.998Z,58.30
2018-05-12T01:21:43.437Z,58.30
2018-05-12T01:24:10.753Z,58.30
2018-05-12T01:26:38.871Z,58.20
2018-05-12T01:29:06.178Z,58.20
2018-05-12T01:31:34.273Z,58.10
2018-05-12T01:34:01.570Z,58.10
2018-05-12T01:36:28.890Z,57.80
2018-05-12T01:38:56.182Z,57.80
2018-05-12T01:41:23.541Z,57.80
2018-05-12T01:43:50.898Z,57.70
2018-05-12T01:46:18.245Z,58.40
2018-05-12T01:48:45.567Z,57.80
2018-05-12T01:51:13.750Z,57.90
2018-05-12T01:53:41.101Z,57.90
2018-05-12T01:56:08.477Z,57.80
2018-05-12T01:58:35.803Z,57.80
2018-05-12T02:01:03.185Z,57.80
2018-05-12T02:03:30.562Z,58.40
2018-05-12T02:05:57.973Z,57.70
2018-05-12T02:08:25.316Z,57.70
2018-05-12T02:10:52.619Z,57.60
2018-05-12T02:13:20.730Z,57.60
2018-05-12T02:15:48.065Z,57.60
2018-05-12T02:18:15.394Z,57.60
2018-05-12T02:20:43.482Z,57.60
2018-05-12T02:23:10.800Z,57.50
2018-05-12T02:25:38.099Z,57.50
2018-05-12T02:28:05.449Z,57.40
2018-05-12T02:30:32.778Z,57.40
2018-05-12T02:33:00.949Z,57.40
2018-05-12T02:35:29.113Z,57.40
2018-05-12T02:37:57.251Z,58.00
2018-05-12T02:40:24.583Z,57.40
2018-05-12T02:42:51.910Z,57.40
2018-05-12T02:45:19.274Z,57.40
2018-05-12T02:47:46.588Z,57.40
2018-05-12T02:50:14.686Z,57.40
2018-05-12T02:52:42.037Z,57.40
2018-05-12T02:55:10.126Z,57.40
2018-05-12T02:57:37.520Z,57.40
2018-05-12T03:00:04.867Z,57.40
2018-05-12T03:02:32.228Z,57.40
2018-05-12T03:04:59.582Z,57.40
2018-05-12T03:07:26.940Z,57.40
2018-05-12T03:09:54.254Z,57.40
2018-05-12T03:12:21.579Z,57.30
2018-05-12T03:14:49.690Z,57.30
2018-05-12T03:17:17.050Z,57.30
2018-05-12T03:19:44.353Z,57.30
2018-05-12T03:22:12.419Z,57.20
2018-05-12T03:24:40.555Z,57.20
2018-05-12T03:27:07.918Z,57.10
2018-05-12T03:29:35.266Z,57.80
2018-05-12T03:32:02.613Z,57.10
2018-05-12T03:34:29.933Z,57.00
2018-05-12T03:36:57.269Z,57.00
2018-05-12T03:39:25.410Z,56.80
2018-05-12T03:41:52.748Z,56.90
2018-05-12T03:44:20.141Z,56.90
2018-05-12T03:46:48.281Z,56.80
2018-05-12T03:49:15.616Z,56.80
2018-05-12T03:51:42.990Z,56.90
2018-05-12T03:54:10.303Z,56.80
2018-05-12T03:56:37.633Z,56.80
2018-05-12T03:59:05.744Z,56.80
2018-05-12T04:01:33.108Z,56.70
2018-05-12T04:04:00.471Z,56.70
2018-05-12T04:06:33.813Z,56.70
2018-05-12T04:09:06.966Z,56.70
2018-05-12T04:11:40.280Z,56.70
2018-05-12T04:14:08.408Z,56.70
2018-05-12T04:16:35.718Z,56.70
2018-05-12T04:19:03.053Z,56.70
2018-05-12T04:21:31.165Z,56.80
2018-05-12T04:23:58.508Z,56.80
2018-05-12T04:26:25.855Z,56.70
2018-05-12T04:28:53.198Z,56.70
2018-05-12T04:31:21.301Z,56.70
2018-05-12T04:33:48.659Z,56.60
2018-05-12T04:36:15.997Z,56.60
2018-05-12T04:38:43.349Z,56.70
2018-05-12T04:41:10.650Z,56.70
2018-05-12T04:43:37.987Z,56.70
2018-05-12T04:46:05.281Z,56.50
2018-05-12T04:48:33.349Z,56.60
2018-05-12T04:51:01.423Z,56.60
2018-05-12T04:53:29.521Z,56.60
2018-05-12T04:55:56.817Z,56.40
2018-05-12T04:58:24.175Z,56.60
2018-05-12T05:00:51.504Z,56.60
2018-05-12T05:03:18.809Z,56.50
2018-05-12T05:05:46.923Z,56.60
2018-05-12T05:08:14.348Z,56.60
2018-05-12T05:10:42.440Z,56.50
2018-05-12T05:13:09.819Z,56.50
2018-05-12T05:15:37.143Z,56.30
2018-05-12T05:18:04.484Z,56.60
2018-05-12T05:20:31.813Z,56.70
2018-05-12T05:22:59.909Z,56.80
2018-05-12T05:25:27.204Z,56.80
2018-05-12T05:27:54.560Z,57.20
2018-05-12T05:30:21.873Z,57.10
2018-05-12T05:32:49.219Z,57.20
2018-05-12T05:35:16.676Z,57.20
2018-05-12T05:37:43.980Z,57.30
2018-05-12T05:40:11.385Z,57.40
2018-05-12T05:42:38.712Z,58.00
2018-05-12T05:45:06.839Z,57.30
2018-05-12T05:47:34.177Z,57.20
2018-05-12T05:50:01.520Z,57.10
2018-05-12T05:52:28.924Z,57.50
2018-05-12T05:54:56.246Z,57.60
2018-05-12T05:57:23.585Z,57.30
2018-05-12T05:59:50.928Z,57.30
2018-05-12T06:02:18.309Z,57.10
2018-05-12T06:04:45.656Z,57.30
2018-05-12T06:07:13.078Z,57.50
2018-05-12T06:09:40.370Z,58.00
2018-05-12T06:12:07.724Z,57.50
2018-05-12T06:14:35.053Z,57.40
2018-05-12T06:17:02.356Z,57.30
2018-05-12T06:19:29.670Z,56.90
2018-05-12T06:21:57.019Z,57.10
2018-05-12T06:24:24.375Z,57.20
2018-05-12T06:26:51.684Z,57.30
2018-05-12T06:29:19.818Z,56.80
2018-05-12T06:31:47.203Z,56.70
2018-05-12T06:34:15.326Z,57.10
2018-05-12T06:36:42.717Z,57.70
2018-05-12T06:39:10.069Z,57.00
2018-05-12T06:41:37.403Z,57.20
2018-05-12T06:44:04.770Z,57.10
2018-05-12T06:46:32.160Z,56.70
2018-05-12T06:48:59.508Z,56.80
2018-05-12T06:51:27.613Z,57.00
2018-05-12T06:53:54.944Z,57.00
2018-05-12T06:56:22.289Z,57.10
2018-05-12T06:58:50.373Z,57.10
2018-05-12T07:01:17.763Z,57.10
2018-05-12T07:03:45.119Z,57.30
2018-05-12T07:06:12.428Z,57.30
2018-05-12T07:08:39.827Z,57.40
2018-05-12T07:11:07.189Z,57.40
2018-05-12T07:13:34.508Z,57.50
2018-05-12T07:16:02.596Z,57.70
2018-05-12T07:18:29.941Z,57.60
2018-05-12T07:20:57.254Z,57.70
2018-05-12T07:23:25.344Z,58.10
2018-05-12T07:25:52.656Z,58.10
2018-05-12T07:28:20.115Z,58.00
2018-05-12T07:30:48.263Z,57.90
2018-05-12T07:33:15.608Z,57.90
2018-05-12T07:35:42.988Z,57.80
2018-05-12T07:38:10.324Z,58.00
2018-05-12T07:40:37.615Z,57.70
2018-05-12T07:43:05.732Z,58.00
2018-05-12T07:45:33.098Z,58.00
2018-05-12T07:48:00.469Z,57.90
2018-05-12T07:50:27.818Z,57.90
2018-05-12T07:52:55.130Z,57.90
2018-05-12T07:55:22.477Z,58.10
2018-05-12T07:57:49.787Z,58.10
2018-05-12T08:00:17.113Z,57.90
2018-05-12T08:02:44.417Z,57.90
2018-05-12T08:05:12.524Z,57.90
2018-05-12T08:07:39.865Z,57.90
2018-05-12T08:10:07.997Z,57.90
2018-05-12T08:12:36.137Z,57.90
2018-05-12T08:15:03.454Z,57.80
2018-05-12T08:17:30.707Z,57.90
2018-05-12T08:19:57.969Z,57.80
2018-05-12T08:22:25.181Z,57.80
2018-05-12T08:24:52.395Z,57.70
2018-05-12T08:27:20.379Z,57.10
2018-05-12T08:29:47.647Z,57.00
2018-05-12T08:32:15.601Z,56.80
2018-05-12T08:34:42.857Z,56.80
2018-05-12T08:37:10.075Z,57.10
2018-05-12T08:39:37.261Z,57.30
2018-05-12T08:42:04.515Z,57.50
2018-05-12T08:44:31.772Z,57.40
2018-05-12T08:46:59.749Z,56.80
2018-05-12T08:49:27.739Z,56.70
2018-05-12T08:51:54.975Z,56.70
2018-05-12T08:54:22.950Z,56.50
2018-05-12T08:56:50.164Z,56.50
2018-05-12T08:59:17.387Z,56.40
2018-05-12T09:01:44.596Z,56.50
2018-05-12T09:04:12.636Z,56.80
2018-05-12T09:06:39.824Z,56.80
2018-05-12T09:09:07.088Z,56.80
2018-05-12T09:11:34.315Z,56.70
2018-05-12T09:14:02.288Z,56.70
2018-05-12T09:16:30.248Z,56.70
2018-05-12T09:18:58.216Z,56.60
2018-05-12T09:21:26.192Z,56.50
2018-05-12T09:23:54.166Z,56.40
2018-05-12T09:26:21.370Z,56.40
2018-05-12T09:28:48.570Z,56.30
2018-05-12T09:31:15.778Z,56.30
2018-05-12T09:33:43.047Z,56.50
2018-05-12T09:36:11.049Z,56.40
2018-05-12T09:38:38.248Z,56.40
2018-05-12T09:41:05.478Z,56.40
2018-05-12T09:43:32.709Z,56.50
2018-05-12T09:45:59.917Z,56.30
2018-05-12T09:48:27.921Z,56.30
2018-05-12T09:50:55.164Z,56.30
2018-05-12T09:53:22.387Z,56.20
2018-05-12T09:55:50.359Z,55.90
2018-05-12T09:58:18.355Z,56.00
2018-05-12T10:00:45.584Z,55.90
2018-05-12T10:03:12.772Z,56.00
2018-05-12T10:05:40.014Z,55.90
2018-05-12T10:08:07.274Z,55.80
2018-05-12T10:10:34.575Z,55.80
2018-05-12T10:13:02.657Z,55.80
2018-05-12T10:15:30.051Z,55.70
2018-05-12T10:17:57.329Z,55.80
2018-05-12T10:20:24.638Z,55.90
2018-05-12T10:22:52.013Z,55.90
2018-05-12T10:25:20.118Z,55.90
2018-05-12T10:27:48.252Z,56.00
2018-05-12T10:30:15.527Z,56.00
2018-05-12T10:32:42.856Z,55.90
2018-05-12T10:35:10.179Z,56.00
2018-05-12T10:37:37.466Z,56.00
2018-05-12T10:40:04.797Z,56.00
2018-05-12T10:42:32.136Z,55.90
2018-05-12T10:44:59.465Z,55.80
2018-05-12T10:47:27.526Z,55.60
2018-05-12T10:49:55.615Z,55.50
2018-05-12T10:52:22.831Z,55.50
2018-05-12T10:54:50.073Z,55.60
2018-05-12T10:57:17.315Z,55.70
2018-05-12T10:59:44.509Z,55.70
2018-05-12T11:02:11.734Z,55.60
2018-05-12T11:04:38.962Z,55.60
2018-05-12T11:07:06.181Z,55.60
2018-05-12T11:09:34.151Z,55.60
2018-05-12T11:12:01.407Z,55.60
2018-05-12T11:14:28.624Z,55.50
2018-05-12T11:16:55.836Z,55.40
2018-05-12T11:19:23.049Z,55.40
2018-05-12T11:21:51.054Z,55.40
2018-05-12T11:24:18.282Z,55.40
2018-05-12T11:26:45.572Z,55.40
2018-05-12T11:29:12.853Z,55.40
2018-05-12T11:31:40.950Z,55.30
2018-05-12T11:34:08.256Z,55.30
2018-05-12T11:36:35.552Z,55.10
2018-05-12T11:39:02.943Z,55.00
2018-05-12T11:41:30.256Z,54.90
2018-05-12T11:43:57.576Z,54.80
2018-05-12T11:46:25.647Z,54.90
2018-05-12T11:48:53.717Z,54.80
2018-05-12T11:51:21.822Z,54.90
2018-05-12T11:53:49.195Z,54.80
2018-05-12T11:56:16.485Z,54.90
2018-05-12T11:58:43.773Z,54.90
2018-05-12T12:01:11.138Z,54.90
2018-05-12T12:03:38.483Z,54.90
2018-05-12T12:06:05.808Z,54.80
2018-05-12T12:08:33.899Z,54.80
2018-05-12T12:11:01.197Z,54.80
2018-05-12T12:13:29.285Z,54.80
2018-05-12T12:15:56.642Z,54.50
2018-05-12T12:18:23.930Z,54.90
2018-05-12T12:20:51.255Z,54.90
2018-05-12T12:23:19.349Z,55.20
2018-05-12T12:25:47.458Z,54.90
2018-05-12T12:28:14.808Z,54.90
2018-05-12T12:30:42.113Z,54.90
2018-05-12T12:33:10.232Z,55.00
2018-05-12T12:35:37.580Z,55.00
2018-05-12T12:38:04.952Z,54.90
2018-05-12T12:40:33.028Z,54.70
2018-05-12T12:43:00.353Z,55.50
2018-05-12T12:45:27.708Z,54.70
2018-05-12T12:47:55.025Z,54.70
2018-05-12T12:50:23.104Z,54.80
2018-05-12T12:52:50.413Z,54.70
2018-05-12T12:55:17.793Z,54.70
2018-05-12T12:57:45.868Z,54.80
2018-05-12T13:00:13.940Z,54.70
2018-05-12T13:02:42.034Z,54.80
2018-05-12T13:05:09.377Z,54.70
2018-05-12T13:07:36.756Z,54.80
2018-05-12T13:10:04.164Z,54.80
2018-05-12T13:12:32.216Z,54.90
2018-05-12T13:14:59.546Z,54.80
2018-05-12T13:17:26.860Z,54.80
2018-05-12T13:19:54.246Z,54.80
2018-05-12T13:22:21.537Z,54.80
2018-05-12T13:24:49.613Z,54.90
2018-05-12T13:27:17.677Z,55.00
2018-05-12T13:29:45.009Z,54.90
2018-05-12T13:32:12.389Z,54.90
2018-05-12T13:34:39.669Z,54.90
2018-05-12T13:37:07.011Z,55.00
2018-05-12T13:39:35.117Z,55.00
2018-05-12T13:42:02.514Z,55.00
2018-05-12T13:44:29.838Z,55.00
2018-05-12T13:46:57.159Z,55.00
2018-05-12T13:49:24.443Z,55.10
2018-05-12T13:51:51.733Z,55.20
2018-05-12T13:54:19.816Z,55.40
2018-05-12T13:56:47.888Z,55.30
2018-05-12T13:59:16.012Z,55.20
2018-05-12T14:01:43.303Z,55.20
2018-05-12T14:04:11.415Z,55.30
2018-05-12T14:06:38.724Z,55.20
2018-05-12T14:09:06.071Z,55.30
2018-05-12T14:11:34.112Z,55.20
2018-05-12T14:14:01.397Z,55.10
2018-05-12T14:16:29.604Z,54.80
2018-05-12T14:18:57.122Z,54.80
2018-05-12T14:21:24.393Z,54.80
2018-05-12T14:23:52.500Z,56.30
2018-05-12T14:26:19.949Z,56.30
2018-05-12T14:28:48.024Z,56.40
2018-05-12T14:31:15.299Z,56.40
2018-05-12T14:33:42.516Z,56.20
2018-05-12T14:36:09.751Z,55.90
2018-05-12T14:38:37.759Z,53.40
2018-05-12T14:41:04.971Z,53.40
2018-05-12T14:43:32.938Z,52.70
2018-05-12T14:46:00.896Z,52.00
2018-05-12T14:48:28.870Z,51.50
2018-05-12T14:50:56.856Z,51.60
2018-05-12T14:53:24.093Z,51.50
2018-05-12T14:55:52.071Z,51.30
2018-05-12T14:58:19.420Z,51.30
2018-05-12T15:00:46.778Z,51.60
2018-05-12T15:03:14.116Z,52.10
2018-05-12T15:05:42.161Z,51.80
2018-05-12T15:08:09.561Z,51.70
2018-05-12T15:10:36.883Z,52.40
2018-05-12T15:13:04.935Z,51.30
2018-05-12T15:15:32.234Z,51.30
2018-05-12T15:17:59.556Z,51.00
2018-05-12T15:20:27.793Z,49.60
2018-05-12T15:22:55.077Z,49.60
2018-05-12T15:25:23.198Z,50.20
2018-05-12T15:27:50.490Z,50.20
2018-05-12T15:30:17.827Z,50.60
2018-05-12T15:32:45.154Z,50.80
2018-05-12T15:35:12.877Z,51.10
2018-05-12T15:37:41.104Z,51.40
2018-05-12T15:40:08.444Z,51.40
2018-05-12T15:42:35.748Z,51.70
2018-05-12T15:45:03.967Z,51.80
2018-05-12T15:47:31.369Z,51.80
2018-05-12T15:49:58.795Z,51.40
2018-05-12T15:52:27.046Z,51.90
2018-05-12T15:54:54.504Z,51.90
2018-05-12T15:57:21.874Z,52.00
2018-05-12T15:59:49.217Z,52.10
2018-05-12T16:02:16.640Z,52.20
2018-05-12T16:04:44.037Z,52.30
2018-05-12T16:07:11.386Z,52.30
2018-05-12T16:09:38.719Z,52.40
2018-05-12T16:12:06.300Z,52.40
2018-05-12T16:14:33.661Z,52.50
2018-05-12T16:17:01.744Z,52.00
2018-05-12T16:19:29.210Z,52.00
2018-05-12T16:21:56.653Z,52.00
2018-05-12T16:24:24.006Z,52.10
2018-05-12T16:26:51.717Z,52.20
2018-05-12T16:29:19.113Z,52.10
2018-05-12T16:31:46.786Z,52.20
2018-05-12T16:34:14.351Z,52.40
2018-05-12T16:36:41.686Z,52.50
2018-05-12T16:39:09.260Z,52.60
2018-05-12T16:41:36.578Z,52.60
2018-05-12T16:44:03.947Z,52.80
2018-05-12T16:46:31.270Z,52.90
2018-05-12T16:48:58.926Z,53.60
2018-05-12T16:51:26.342Z,53.10
2018-05-12T16:53:53.695Z,53.10
2018-05-12T16:56:21.001Z,53.20
2018-05-12T16:58:48.319Z,53.30
2018-05-12T17:01:16.846Z,53.40
2018-05-12T17:03:44.835Z,53.40
2018-05-12T17:06:12.864Z,53.40
2018-05-12T17:08:42.868Z,53.30
2018-05-12T17:11:11.415Z,53.10
2018-05-12T17:13:38.807Z,53.10
2018-05-12T17:16:06.116Z,53.30
2018-05-12T17:18:33.458Z,53.40
2018-05-12T17:21:00.801Z,53.50
2018-05-12T17:23:28.104Z,53.50
2018-05-12T17:25:56.262Z,53.60
2018-05-12T17:28:23.565Z,53.60
2018-05-12T17:30:50.857Z,53.60
2018-05-12T17:33:18.183Z,53.60
2018-05-12T17:35:45.500Z,53.50
2018-05-12T17:38:12.800Z,53.20
2018-05-12T17:40:40.105Z,53.10
2018-05-12T17:43:07.436Z,53.10
2018-05-12T17:45:35.520Z,53.10
2018-05-12T17:48:03.636Z,53.10
2018-05-12T17:50:30.996Z,53.10
2018-05-12T17:52:58.300Z,53.20
2018-05-12T17:55:26.429Z,53.50
2018-05-12T17:57:53.757Z,53.50
2018-05-12T18:00:20.981Z,53.50
2018-05-12T18:02:48.960Z,53.60
2018-05-12T18:05:16.980Z,53.50
2018-05-12T18:07:44.201Z,53.40
2018-05-12T18:10:11.423Z,53.40
2018-05-12T18:12:39.407Z,53.50
2018-05-12T18:15:06.618Z,53.50
2018-05-12T18:17:33.804Z,53.50
2018-05-12T18:20:01.075Z,53.60
2018-05-12T18:22:29.296Z,53.60
2018-05-12T18:24:57.405Z,53.80
2018-05-12T18:27:24.618Z,53.60
2018-05-12T18:29:51.874Z,53.80
2018-05-12T18:32:20.029Z,54.50
2018-05-12T18:34:47.355Z,53.80
2018-05-12T18:37:14.668Z,54.40
2018-05-12T18:39:41.965Z,53.90
2018-05-12T18:42:10.084Z,53.90
2018-05-12T18:44:37.425Z,53.90
2018-05-12T18:47:04.731Z,53.80
2018-05-12T18:49:31.948Z,53.80
2018-05-12T18:51:59.991Z,53.80
2018-05-12T18:54:27.207Z,53.80
2018-05-12T18:56:54.409Z,53.60
2018-05-12T18:59:22.378Z,53.30
2018-05-12T19:01:50.381Z,53.30
2018-05-12T19:04:17.567Z,53.20
2018-05-12T19:06:44.788Z,53.90
2018-05-12T19:09:12.013Z,53.30
2018-05-12T19:11:39.225Z,53.30
2018-05-12T19:14:06.458Z,53.20
2018-05-12T19:16:33.690Z,53.10
2018-05-12T19:19:00.962Z,53.20
2018-05-12T19:21:28.160Z,53.30
2018-05-12T19:23:56.139Z,53.10
2018-05-12T19:26:23.387Z,53.10
2018-05-12T19:28:50.671Z,53.10
2018-05-12T19:31:17.870Z,53.10
2018-05-12T19:33:45.863Z,53.20
2018-05-12T19:36:13.083Z,53.20
2018-05-12T19:38:41.069Z,53.30
2018-05-12T19:41:08.316Z,53.20
2018-05-12T19:43:36.317Z,53.30
2018-05-12T19:46:03.622Z,53.30
2018-05-12T19:48:31.591Z,53.40
2018-05-12T19:50:59.591Z,53.50
2018-05-12T19:53:26.822Z,53.50
2018-05-12T19:55:54.831Z,53.90
2018-05-12T19:58:22.019Z,53.90
2018-05-12T20:00:49.207Z,54.00
2018-05-12T20:03:16.443Z,54.00
2018-05-12T20:05:44.403Z,54.10
2018-05-12T20:08:12.386Z,54.20
2018-05-12T20:10:39.608Z,54.20
2018-05-12T20:13:06.838Z,54.20
2018-05-12T20:15:34.058Z,54.30
2018-05-12T20:18:01.256Z,54.30
2018-05-12T20:20:28.432Z,54.30
2018-05-12T20:22:56.412Z,54.40
2018-05-12T20:25:23.661Z,54.40
2018-05-12T20:27:50.882Z,54.40
2018-05-12T20:30:18.120Z,54.40
2018-05-12T20:32:45.373Z,54.40
2018-05-12T20:35:12.627Z,54.40
2018-05-12T20:37:39.826Z,54.40
2018-05-12T20:40:07.039Z,54.40
2018-05-12T20:42:34.451Z,54.40
2018-05-12T20:45:01.680Z,54.40
2018-05-12T20:47:28.887Z,54.40
2018-05-12T20:49:56.093Z,54.40
2018-05-12T20:52:23.358Z,54.40
2018-05-12T20:54:50.615Z,54.40
2018-05-12T20:57:17.851Z,54.40
2018-05-12T20:59:45.096Z,54.40
2018-05-12T21:02:12.313Z,54.40
2018-05-12T21:04:40.299Z,54.50
2018-05-12T21:07:07.519Z,54.50
2018-05-12T21:09:35.501Z,54.50
2018-05-12T21:12:03.516Z,54.60
2018-05-12T21:14:31.531Z,54.70
2018-05-12T21:16:59.549Z,54.90
2018-05-12T21:19:26.761Z,54.90
2018-05-12T21:21:53.984Z,55.20
2018-05-12T21:24:21.195Z,55.50
2018-05-12T21:26:48.392Z,55.50
2018-05-12T21:29:16.363Z,55.40
2018-05-12T21:31:44.336Z,55.30
2018-05-12T21:34:12.288Z,55.30
2018-05-12T21:36:39.539Z,55.30
2018-05-12T21:39:06.746Z,55.30
2018-05-12T21:41:33.953Z,55.30
2018-05-12T21:44:01.933Z,55.30
2018-05-12T21:46:29.903Z,55.20
2018-05-12T21:48:57.124Z,55.20
2018-05-12T21:51:24.359Z,55.20
2018-05-12T21:53:51.568Z,55.20
2018-05-12T21:56:18.794Z,55.20
2018-05-12T21:58:46.878Z,55.10
2018-05-12T22:01:14.083Z,55.10
2018-05-12T22:03:41.314Z,55.10
2018-05-12T22:06:08.571Z,55.10
2018-05-12T22:08:35.782Z,55.10
2018-05-12T22:11:03.006Z,55.00
2018-05-12T22:13:31.102Z,54.90
2018-05-12T22:15:58.327Z,54.70
2018-05-12T22:18:26.355Z,54.10
2018-05-12T22:20:53.555Z,54.10
2018-05-12T22:23:21.535Z,54.00
2018-05-12T22:25:49.539Z,54.00
2018-05-12T22:28:16.771Z,53.90
2018-05-12T22:30:44.009Z,53.70
2018-05-12T22:33:11.188Z,53.10
2018-05-12T22:35:38.377Z,52.60
2018-05-12T22:38:05.619Z,52.40
2018-05-12T22:40:32.810Z,52.50
2018-05-12T22:43:00.023Z,52.50
2018-05-12T22:45:27.251Z,52.60
2018-05-12T22:47:54.471Z,52.60
2018-05-12T22:50:21.696Z,52.50
2018-05-12T22:52:49.656Z,52.30
2018-05-12T22:55:17.641Z,52.30
2018-05-12T22:57:44.862Z,52.30
2018-05-12T23:00:13.792Z,52.40
2018-05-12T23:02:41.152Z,52.20
2018-05-12T23:05:08.356Z,52.30
2018-05-12T23:07:35.586Z,52.30
2018-05-12T23:10:03.614Z,52.20
2018-05-12T23:12:30.839Z,52.20
2018-05-12T23:14:58.824Z,52.20
2018-05-12T23:17:26.034Z,52.80
2018-05-12T23:19:53.271Z,52.10
2018-05-12T23:22:20.488Z,52.10
2018-05-12T23:24:47.715Z,52.00
2018-05-12T23:27:15.695Z,51.90
2018-05-12T23:29:42.915Z,52.50
2018-05-12T23:32:10.125Z,51.90
2018-05-12T23:34:37.360Z,51.80
2018-05-12T23:37:04.550Z,51.70
2018-05-12T23:39:31.771Z,51.70
2018-05-12T23:41:58.998Z,51.70
2018-05-12T23:44:26.212Z,51.70
2018-05-12T23:46:53.422Z,51.70
2018-05-12T23:49:20.687Z,51.70
2018-05-12T23:51:47.915Z,51.40
2018-05-12T23:54:15.138Z,51.10
2018-05-12T23:56:43.100Z,50.80
2018-05-12T23:59:11.084Z,50.90
